Winnie, Texas
Current Conditions -  °F | °C
As of 12:15 PM on Monday 26 Jan 2015 (Local Time) from KBMT Reporting Station
Clear Clear  
Wind Chill: 61°   Ceiling: Unl
Heat Index: 61°   Visibility: 10mi
Dew Point: 36°   Wind: 7mph
Humidity: 39%   Direction: 360°N
Pressure: 30.2"   Gusts: NA
Location:  29.82°N, 94.38°W
Report Text: KBMT 261815Z AUTO 36006KT 10SM CLR 16/02 A3020 RMK AO2 T01610021
Loading
Personal Weather Stations






























Interactive Weather Map New forecast layout! Learn more

10-Day Weather Forecast

Advertisements
Track Severe Weather on mobile